createdAt,value
2018-12-18T00:00:48.815Z,224.30
2018-12-18T00:01:54.558Z,220.97
2018-12-18T00:03:00.034Z,220.02
2018-12-18T00:04:05.518Z,229.83
2018-12-18T00:05:16.242Z,220.80
2018-12-18T00:06:21.718Z,220.57
2018-12-18T00:07:27.300Z,226.10
2018-12-18T00:08:32.872Z,215.45
2018-12-18T00:09:38.478Z,223.27
2018-12-18T00:12:07.799Z,214.10
2018-12-18T00:13:13.304Z,228.73
2018-12-18T00:14:18.867Z,197.13
2018-12-18T00:15:24.420Z,210.20
2018-12-18T00:17:46.135Z,227.33
2018-12-18T00:18:51.571Z,199.07
2018-12-18T00:19:57.028Z,229.43
2018-12-18T00:21:02.482Z,225.57
2018-12-18T00:22:09.195Z,213.37
2018-12-18T00:23:14.664Z,223.70
2018-12-18T00:24:20.185Z,235.07
2018-12-18T00:25:25.622Z,205.40
2018-12-18T00:26:31.114Z,214.67
2018-12-18T00:27:36.676Z,229.27
2018-12-18T00:28:42.286Z,245.33
2018-12-18T00:29:47.786Z,222.87
2018-12-18T00:30:53.415Z,209.30
2018-12-18T00:31:58.900Z,235.37
2018-12-18T00:33:04.636Z,218.70
2018-12-18T00:34:10.218Z,251.83
2018-12-18T00:35:15.723Z,253.33
2018-12-18T00:36:21.180Z,255.70
2018-12-18T00:37:26.616Z,221.73
2018-12-18T00:38:32.152Z,239.70
2018-12-18T00:39:37.575Z,234.53
2018-12-18T00:40:43.204Z,238.03
2018-12-18T00:41:48.674Z,212.73
2018-12-18T00:42:54.187Z,235.07
2018-12-18T00:43:59.638Z,229.63
2018-12-18T00:45:05.843Z,220.90
2018-12-18T00:46:11.595Z,223.87
2018-12-18T00:47:17.098Z,226.40
2018-12-18T00:48:22.727Z,218.60
2018-12-18T00:49:28.263Z,220.97
2018-12-18T00:50:34.003Z,207.03
2018-12-18T00:51:39.431Z,224.30
2018-12-18T00:52:44.971Z,221.50
2018-12-18T00:53:50.526Z,217.20
2018-12-18T00:54:56.164Z,242.73
2018-12-18T00:56:01.614Z,232.40
2018-12-18T00:57:07.087Z,213.97
2018-12-18T00:58:12.527Z,226.07
2018-12-18T00:59:17.939Z,230.17
2018-12-18T01:00:23.651Z,228.50
2018-12-18T01:01:29.050Z,234.20
2018-12-18T01:02:34.623Z,224.65
2018-12-18T01:03:40.210Z,231.17
2018-12-18T01:04:47.452Z,233.70
2018-12-18T01:05:52.973Z,233.70
2018-12-18T01:06:58.475Z,232.77
2018-12-18T01:08:04.395Z,250.90
2018-12-18T01:09:09.951Z,245.07
2018-12-18T01:10:15.522Z,230.27
2018-12-18T01:11:21.164Z,228.73
2018-12-18T01:12:26.690Z,238.30
2018-12-18T01:13:32.538Z,217.13
2018-12-18T01:14:37.987Z,230.17
2018-12-18T01:15:43.465Z,234.17
2018-12-18T01:16:48.955Z,219.87
2018-12-18T01:17:54.406Z,269.93
2018-12-18T01:18:59.875Z,248.23
2018-12-18T01:20:05.603Z,241.87
2018-12-18T01:21:11.270Z,226.70
2018-12-18T01:22:16.803Z,242.67
2018-12-18T01:23:22.445Z,256.87
2018-12-18T01:24:28.080Z,263.90
2018-12-18T01:25:33.697Z,213.97
2018-12-18T01:26:39.248Z,237.70
2018-12-18T01:27:44.897Z,252.20
2018-12-18T01:28:50.484Z,223.47
2018-12-18T01:29:55.899Z,251.70
2018-12-18T01:31:01.636Z,215.87
2018-12-18T01:32:07.214Z,228.90
2018-12-18T01:33:12.735Z,235.03
2018-12-18T01:34:18.171Z,215.57
2018-12-18T01:35:23.812Z,221.93
2018-12-18T01:36:29.387Z,237.37
2018-12-18T01:37:34.933Z,236.60
2018-12-18T01:38:40.559Z,217.77
2018-12-18T01:39:46.062Z,215.90
2018-12-18T01:40:51.502Z,224.87
2018-12-18T01:41:57.056Z,218.93
2018-12-18T01:43:02.503Z,218.40
2018-12-18T01:44:07.927Z,208.57
2018-12-18T01:45:13.439Z,207.23
2018-12-18T01:46:18.913Z,217.80
2018-12-18T01:47:24.383Z,215.60
2018-12-18T01:48:29.878Z,227.87
2018-12-18T01:49:35.355Z,214.37
2018-12-18T01:50:40.945Z,221.20
2018-12-18T01:51:46.488Z,210.90
2018-12-18T01:52:51.887Z,234.20
2018-12-18T01:53:57.494Z,215.90
2018-12-18T01:55:06.074Z,223.50
2018-12-18T01:56:11.758Z,228.97
2018-12-18T01:57:17.266Z,239.20
2018-12-18T01:58:22.865Z,216.20
2018-12-18T01:59:28.468Z,220.40
2018-12-18T02:00:33.941Z,212.90
2018-12-18T02:01:39.490Z,227.97
2018-12-18T02:02:45.014Z,220.63
2018-12-18T02:03:50.450Z,219.03
2018-12-18T02:04:55.866Z,200.10
2018-12-18T02:06:01.443Z,221.53
2018-12-18T02:07:07.005Z,202.47
2018-12-18T02:08:12.511Z,195.50
2018-12-18T02:09:17.951Z,232.97
2018-12-18T02:10:23.584Z,200.77
2018-12-18T02:11:29.116Z,206.27
2018-12-18T02:12:34.565Z,193.07
2018-12-18T02:13:40.057Z,173.10
2018-12-18T02:14:45.455Z,200.07
2018-12-18T02:15:50.899Z,198.37
2018-12-18T02:16:56.335Z,196.63
2018-12-18T02:18:01.971Z,186.87
2018-12-18T02:19:07.407Z,200.33
2018-12-18T02:20:12.874Z,211.92
2018-12-18T02:21:18.440Z,185.67
2018-12-18T02:22:24.008Z,199.23
2018-12-18T02:23:29.532Z,189.67
2018-12-18T02:24:34.973Z,192.37
2018-12-18T02:25:40.566Z,198.90
2018-12-18T02:26:46.000Z,192.10
2018-12-18T02:27:51.571Z,187.97
2018-12-18T02:28:57.031Z,196.20
2018-12-18T02:30:02.576Z,165.57
2018-12-18T02:31:08.072Z,199.50
2018-12-18T02:32:13.528Z,154.57
2018-12-18T02:33:19.087Z,173.27
2018-12-18T02:34:24.795Z,154.40
2018-12-18T02:35:30.203Z,164.97
2018-12-18T02:36:35.670Z,166.30
2018-12-18T02:37:41.060Z,162.63
2018-12-18T02:38:46.507Z,138.37
2018-12-18T02:39:52.255Z,157.47
2018-12-18T02:40:57.764Z,140.47
2018-12-18T02:42:03.300Z,171.07
2018-12-18T02:43:08.732Z,156.47
2018-12-18T02:44:14.220Z,135.00
2018-12-18T02:45:19.999Z,137.55
2018-12-18T02:46:25.547Z,132.83
2018-12-18T02:47:31.083Z,134.50
2018-12-18T02:48:36.682Z,165.93
2018-12-18T02:49:42.183Z,156.12
2018-12-18T02:50:47.647Z,144.63
2018-12-18T02:51:53.247Z,138.87
2018-12-18T02:52:58.706Z,124.97
2018-12-18T02:54:04.164Z,134.33
2018-12-18T02:55:09.700Z,112.03
2018-12-18T02:56:15.154Z,131.00
2018-12-18T02:57:20.658Z,120.20
2018-12-18T02:58:26.260Z,120.80
2018-12-18T02:59:31.838Z,130.13
2018-12-18T03:00:37.336Z,127.17
2018-12-18T03:01:42.752Z,123.93
2018-12-18T03:02:48.174Z,143.60
2018-12-18T03:03:53.659Z,122.73
2018-12-18T03:04:59.191Z,130.73
2018-12-18T03:06:04.705Z,138.17
2018-12-18T03:07:10.334Z,129.57
2018-12-18T03:08:15.808Z,116.10
2018-12-18T03:09:21.406Z,121.70
2018-12-18T03:10:26.877Z,112.13
2018-12-18T03:11:32.287Z,114.23
2018-12-18T03:12:37.752Z,128.83
2018-12-18T03:13:43.194Z,123.20
2018-12-18T03:14:48.654Z,121.07
2018-12-18T03:15:54.075Z,126.63
2018-12-18T03:16:59.613Z,128.93
2018-12-18T03:18:05.289Z,106.60
2018-12-18T03:19:10.837Z,121.33
2018-12-18T03:20:16.515Z,106.03
2018-12-18T03:21:21.927Z,114.10
2018-12-18T03:22:27.424Z,109.73
2018-12-18T03:23:32.839Z,119.43
2018-12-18T03:24:38.342Z,109.10
2018-12-18T03:25:44.033Z,114.20
2018-12-18T03:26:49.497Z,123.33
2018-12-18T03:27:54.902Z,116.07
2018-12-18T03:29:00.694Z,132.93
2018-12-18T03:30:06.962Z,118.10
2018-12-18T03:31:12.572Z,107.83
2018-12-18T03:33:40.007Z,99.83
2018-12-18T03:34:45.556Z,125.40
2018-12-18T03:35:51.012Z,116.13
2018-12-18T03:36:56.656Z,112.17
2018-12-18T03:38:02.191Z,128.90
2018-12-18T03:39:08.306Z,110.83
2018-12-18T03:40:14.745Z,117.67
2018-12-18T03:41:20.358Z,105.50
2018-12-18T03:42:25.870Z,105.50
2018-12-18T03:43:31.295Z,133.47
2018-12-18T03:44:36.802Z,122.20
2018-12-18T03:45:42.308Z,115.07
2018-12-18T03:46:47.801Z,125.83
2018-12-18T03:47:53.262Z,137.27
2018-12-18T03:48:58.753Z,109.53
2018-12-18T03:50:05.330Z,102.90
2018-12-18T03:51:10.857Z,114.90
2018-12-18T03:52:16.556Z,106.80
2018-12-18T03:53:22.150Z,107.15
2018-12-18T03:54:27.792Z,118.90
2018-12-18T03:55:33.439Z,112.67
2018-12-18T03:56:38.892Z,120.13
2018-12-18T03:57:44.476Z,108.93
2018-12-18T03:58:49.967Z,122.73
2018-12-18T03:59:55.445Z,98.33
2018-12-18T04:01:01.039Z,98.27
2018-12-18T04:02:06.489Z,116.00
2018-12-18T04:03:12.280Z,109.97
2018-12-18T04:04:17.996Z,104.97
2018-12-18T04:05:23.526Z,108.63
2018-12-18T04:06:29.166Z,96.53
2018-12-18T04:07:34.569Z,110.10
2018-12-18T04:08:40.240Z,103.03
2018-12-18T04:09:45.802Z,111.03
2018-12-18T04:10:51.318Z,122.10
2018-12-18T04:12:02.030Z,90.27
2018-12-18T04:13:07.546Z,92.17
2018-12-18T04:14:13.172Z,90.63
2018-12-18T04:15:18.679Z,88.73
2018-12-18T04:16:25.488Z,103.37
2018-12-18T04:17:31.167Z,109.57
2018-12-18T04:18:36.829Z,95.90
2018-12-18T04:19:42.467Z,104.50
2018-12-18T04:20:48.090Z,94.53
2018-12-18T04:21:53.539Z,87.53
2018-12-18T04:22:58.938Z,96.07
2018-12-18T04:24:04.368Z,95.30
2018-12-18T04:25:09.976Z,112.10
2018-12-18T04:26:15.444Z,81.73
2018-12-18T04:27:20.877Z,91.00
2018-12-18T04:28:26.274Z,87.90
2018-12-18T04:29:31.856Z,87.23
2018-12-18T04:30:37.343Z,75.67
2018-12-18T04:31:42.758Z,80.00
2018-12-18T04:32:48.493Z,88.93
2018-12-18T04:33:53.943Z,89.20
2018-12-18T04:34:59.463Z,80.47
2018-12-18T04:36:04.914Z,99.60
2018-12-18T04:37:10.359Z,69.80
2018-12-18T04:38:15.791Z,80.70
2018-12-18T04:39:21.643Z,68.33
2018-12-18T04:40:27.119Z,89.57
2018-12-18T04:41:32.942Z,74.67
2018-12-18T04:42:38.478Z,68.33
2018-12-18T04:43:43.925Z,84.77
2018-12-18T04:44:49.412Z,64.60
2018-12-18T04:45:55.209Z,76.13
2018-12-18T04:47:00.737Z,64.37
2018-12-18T04:48:06.175Z,66.93
2018-12-18T04:49:11.956Z,70.60
2018-12-18T04:50:17.859Z,68.53
2018-12-18T04:51:23.315Z,64.07
2018-12-18T04:52:28.798Z,78.83
2018-12-18T04:53:34.569Z,59.70
2018-12-18T04:54:40.211Z,63.33
2018-12-18T04:55:45.844Z,66.63
2018-12-18T04:56:51.334Z,66.53
2018-12-18T04:57:57.069Z,66.70
2018-12-18T04:59:02.618Z,70.30
2018-12-18T05:00:09.946Z,67.60
2018-12-18T05:01:15.395Z,57.43
2018-12-18T05:02:20.834Z,58.37
2018-12-18T05:03:26.362Z,55.60
2018-12-18T05:04:31.822Z,53.57
2018-12-18T05:05:37.261Z,47.87
2018-12-18T05:06:42.747Z,47.00
2018-12-18T05:07:48.256Z,56.87
2018-12-18T05:08:53.832Z,47.47
2018-12-18T05:09:59.263Z,48.43
2018-12-18T05:11:04.759Z,55.57
2018-12-18T05:12:10.241Z,43.80
2018-12-18T05:13:15.721Z,61.47
2018-12-18T05:14:21.142Z,56.53
2018-12-18T05:15:26.720Z,50.67
2018-12-18T05:16:32.230Z,62.30
2018-12-18T05:17:37.692Z,46.60
2018-12-18T05:18:43.231Z,54.33
2018-12-18T05:19:48.718Z,50.60
2018-12-18T05:20:54.251Z,50.07
2018-12-18T05:21:59.768Z,54.40
2018-12-18T05:23:05.307Z,51.30
2018-12-18T05:24:10.848Z,60.17
2018-12-18T05:25:16.266Z,45.63
2018-12-18T05:26:22.861Z,52.77
2018-12-18T05:27:28.387Z,45.10
2018-12-18T05:28:33.734Z,48.13
2018-12-18T05:29:39.146Z,45.60
2018-12-18T05:30:44.568Z,44.77
2018-12-18T05:31:50.145Z,38.67
2018-12-18T05:32:55.679Z,45.67
2018-12-18T05:34:01.243Z,42.33
2018-12-18T05:35:06.780Z,41.43
2018-12-18T05:36:12.418Z,41.27
2018-12-18T05:37:17.872Z,47.37
2018-12-18T05:38:23.570Z,45.47
2018-12-18T05:39:29.256Z,37.23
2018-12-18T05:40:34.866Z,43.53
2018-12-18T05:41:40.415Z,38.47
2018-12-18T05:42:45.960Z,40.40
2018-12-18T05:43:51.480Z,44.93
2018-12-18T05:44:56.876Z,43.28
2018-12-18T05:46:02.395Z,40.17
2018-12-18T05:47:07.908Z,40.73
2018-12-18T05:48:13.611Z,48.53
2018-12-18T05:49:19.175Z,44.27
2018-12-18T05:50:24.846Z,41.93
2018-12-18T05:51:30.296Z,38.33
2018-12-18T05:52:36.040Z,48.10
2018-12-18T05:53:41.672Z,43.43
2018-12-18T05:54:47.165Z,40.47
2018-12-18T05:55:52.720Z,46.90
2018-12-18T05:56:58.334Z,31.93
2018-12-18T05:58:03.894Z,40.73
2018-12-18T05:59:09.423Z,34.30
2018-12-18T06:00:14.851Z,33.63
2018-12-18T06:01:20.265Z,35.47
2018-12-18T06:02:25.648Z,38.15
2018-12-18T06:03:31.079Z,36.07
2018-12-18T06:04:36.637Z,30.10
2018-12-18T06:05:42.143Z,29.97
2018-12-18T06:06:47.720Z,33.60
2018-12-18T06:07:53.267Z,35.10
2018-12-18T06:08:58.699Z,37.53
2018-12-18T06:10:04.683Z,33.70
2018-12-18T06:11:10.394Z,34.27
2018-12-18T06:12:15.834Z,31.17
2018-12-18T06:13:21.371Z,33.00
2018-12-18T06:14:26.882Z,34.63
2018-12-18T06:15:32.342Z,45.27
2018-12-18T06:16:37.993Z,35.80
2018-12-18T06:17:43.443Z,33.70
2018-12-18T06:18:48.939Z,32.67
2018-12-18T06:19:54.394Z,37.17
2018-12-18T06:20:59.864Z,34.30
2018-12-18T06:22:05.379Z,32.17
2018-12-18T06:23:10.834Z,36.83
2018-12-18T06:24:16.244Z,34.63
2018-12-18T06:25:21.661Z,35.80
2018-12-18T06:26:27.246Z,32.80
2018-12-18T06:27:32.742Z,30.07
2018-12-18T06:28:38.322Z,30.90
2018-12-18T06:29:43.923Z,30.00
2018-12-18T06:30:49.412Z,40.80
2018-12-18T06:31:55.401Z,38.53
2018-12-18T06:33:01.034Z,36.97
2018-12-18T06:34:06.547Z,33.37
2018-12-18T06:35:12.011Z,36.07
2018-12-18T06:36:18.039Z,33.13
2018-12-18T06:37:23.590Z,30.23
2018-12-18T06:38:29.235Z,33.27
2018-12-18T06:39:34.864Z,41.40
2018-12-18T06:40:40.401Z,37.97
2018-12-18T06:41:45.826Z,27.37
2018-12-18T06:42:51.297Z,36.53
2018-12-18T06:43:56.819Z,31.00
2018-12-18T06:45:02.597Z,41.27
2018-12-18T06:46:08.044Z,34.60
2018-12-18T06:47:13.540Z,31.23
2018-12-18T06:48:18.971Z,31.93
2018-12-18T06:49:24.464Z,38.07
2018-12-18T06:50:29.897Z,30.20
2018-12-18T06:51:35.440Z,36.07
2018-12-18T06:52:40.897Z,36.63
2018-12-18T06:53:46.659Z,31.37
2018-12-18T06:54:52.134Z,32.27
2018-12-18T06:55:57.587Z,40.53
2018-12-18T06:57:03.023Z,43.17
2018-12-18T06:58:08.515Z,34.17
2018-12-18T06:59:14.195Z,41.57
2018-12-18T07:00:19.620Z,42.30
2018-12-18T07:01:25.085Z,30.80
2018-12-18T07:02:30.747Z,34.63
2018-12-18T07:03:36.383Z,27.43
2018-12-18T07:04:42.066Z,26.97
2018-12-18T07:05:47.555Z,29.90
2018-12-18T07:06:53.100Z,30.97
2018-12-18T07:07:58.589Z,32.07
2018-12-18T07:09:06.473Z,30.20
2018-12-18T07:10:12.022Z,30.47
2018-12-18T07:11:17.782Z,31.80
2018-12-18T07:12:23.515Z,30.33
2018-12-18T07:13:29.018Z,36.50
2018-12-18T07:14:34.477Z,29.03
2018-12-18T07:15:40.037Z,29.13
2018-12-18T07:16:45.472Z,33.13
2018-12-18T07:17:51.150Z,35.67
2018-12-18T07:18:56.627Z,30.50
2018-12-18T07:20:02.127Z,29.53
2018-12-18T07:21:07.637Z,33.90
2018-12-18T07:22:13.295Z,37.83
2018-12-18T07:23:19.031Z,23.13
2018-12-18T07:24:24.632Z,31.07
2018-12-18T07:25:30.128Z,33.60
2018-12-18T07:26:35.611Z,27.13
2018-12-18T07:27:41.084Z,27.87
2018-12-18T07:28:46.471Z,27.57
2018-12-18T07:29:52.284Z,31.57
2018-12-18T07:30:57.798Z,32.20
2018-12-18T07:32:03.326Z,29.77
2018-12-18T07:33:09.022Z,25.60
2018-12-18T07:34:14.549Z,29.90
2018-12-18T07:35:23.246Z,32.73
2018-12-18T07:36:28.112Z,24.60
2018-12-18T07:37:33.610Z,27.30
2018-12-18T07:38:39.043Z,25.03
2018-12-18T07:39:44.584Z,24.77
2018-12-18T07:40:50.355Z,30.33
2018-12-18T07:41:56.006Z,33.67
2018-12-18T07:43:01.520Z,29.00
2018-12-18T07:44:07.058Z,21.93
2018-12-18T07:45:12.511Z,27.83
2018-12-18T07:46:18.015Z,20.00
2018-12-18T07:47:23.586Z,26.30
2018-12-18T07:48:29.058Z,34.57
2018-12-18T07:49:34.657Z,27.80
2018-12-18T07:50:40.337Z,23.83
2018-12-18T07:51:46.084Z,25.30
2018-12-18T07:52:51.509Z,29.67
2018-12-18T07:53:56.955Z,19.20
2018-12-18T07:55:02.594Z,25.07
2018-12-18T07:56:08.022Z,26.20
2018-12-18T07:57:13.588Z,32.63
2018-12-18T07:58:19.303Z,31.23
2018-12-18T07:59:24.805Z,27.17
2018-12-18T08:00:30.228Z,21.30
2018-12-18T08:01:35.776Z,30.07
2018-12-18T08:02:41.299Z,24.90
2018-12-18T08:03:47.024Z,26.97
2018-12-18T08:04:52.605Z,28.17
2018-12-18T08:05:58.111Z,25.50
2018-12-18T08:07:03.574Z,23.53
2018-12-18T08:08:08.978Z,25.33
2018-12-18T08:09:14.643Z,34.13
2018-12-18T08:10:20.214Z,26.50
2018-12-18T08:11:25.754Z,24.90
2018-12-18T08:12:31.329Z,23.43
2018-12-18T08:13:36.841Z,22.73
2018-12-18T08:14:42.458Z,32.53
2018-12-18T08:15:48.007Z,30.20
2018-12-18T08:16:53.543Z,31.40
2018-12-18T08:17:59.093Z,24.20
2018-12-18T08:19:04.651Z,30.17
2018-12-18T08:20:10.259Z,23.38
2018-12-18T08:21:15.884Z,30.07
2018-12-18T08:22:21.482Z,27.93
2018-12-18T08:23:27.002Z,21.53
2018-12-18T08:24:32.452Z,34.73
2018-12-18T08:25:38.201Z,25.30
2018-12-18T08:26:43.725Z,21.77
2018-12-18T08:27:49.183Z,29.20
2018-12-18T08:28:54.765Z,27.77
2018-12-18T08:30:00.379Z,30.23
2018-12-18T08:31:06.279Z,32.70
2018-12-18T08:32:11.929Z,25.73
2018-12-18T08:33:17.487Z,29.10
2018-12-18T08:34:22.975Z,20.97
2018-12-18T08:35:28.336Z,34.50
2018-12-18T08:36:33.855Z,28.63
2018-12-18T08:37:39.358Z,27.10
2018-12-18T08:38:44.907Z,23.93
2018-12-18T08:39:50.297Z,30.77
2018-12-18T08:40:55.911Z,28.50
2018-12-18T08:42:01.460Z,25.43
2018-12-18T08:43:06.938Z,33.33
2018-12-18T08:44:12.473Z,30.60
2018-12-18T08:45:17.927Z,25.43
2018-12-18T08:46:23.380Z,33.90
2018-12-18T08:47:28.771Z,30.47
2018-12-18T08:48:34.746Z,32.67
2018-12-18T08:49:40.185Z,31.30
2018-12-18T08:50:45.778Z,24.53
2018-12-18T08:51:51.208Z,28.65
2018-12-18T08:52:56.628Z,35.17
2018-12-18T08:54:02.068Z,36.53
2018-12-18T08:55:08.313Z,27.53
2018-12-18T08:56:13.887Z,27.67
2018-12-18T08:57:19.390Z,27.00
2018-12-18T08:58:24.819Z,24.73
2018-12-18T08:59:30.272Z,28.53
2018-12-18T09:00:35.928Z,27.17
2018-12-18T09:01:41.558Z,26.33
2018-12-18T09:02:47.136Z,29.60
2018-12-18T09:03:52.562Z,31.53
2018-12-18T09:04:58.080Z,23.00
2018-12-18T09:06:03.547Z,22.93
2018-12-18T09:07:09.150Z,22.33
2018-12-18T09:08:14.736Z,27.23
2018-12-18T09:09:20.263Z,26.47
2018-12-18T09:10:25.845Z,22.60
2018-12-18T09:11:31.220Z,23.53
2018-12-18T09:12:36.799Z,24.00
2018-12-18T09:13:42.170Z,20.20
2018-12-18T09:14:53.129Z,22.10
2018-12-18T09:15:59.077Z,21.53
2018-12-18T09:18:31.307Z,28.53
2018-12-18T09:19:36.992Z,22.13
2018-12-18T09:20:42.644Z,23.97
2018-12-18T09:21:48.168Z,22.20
2018-12-18T09:22:53.748Z,21.23
2018-12-18T09:23:59.370Z,19.20
2018-12-18T09:25:05.951Z,18.25
2018-12-18T09:26:11.661Z,15.67
2018-12-18T09:27:17.080Z,21.20
2018-12-18T09:28:22.519Z,21.57
2018-12-18T09:29:28.192Z,15.40
2018-12-18T09:30:33.603Z,19.03
2018-12-18T09:31:39.127Z,21.43
2018-12-18T09:32:44.586Z,18.03
2018-12-18T09:33:50.041Z,27.27
2018-12-18T09:34:55.696Z,20.83
2018-12-18T09:36:01.120Z,19.17
2018-12-18T09:37:06.759Z,14.03
2018-12-18T09:38:17.459Z,24.83
2018-12-18T09:40:52.254Z,20.93
2018-12-18T09:42:03.002Z,14.57
2018-12-18T09:43:13.601Z,18.80
2018-12-18T09:44:19.378Z,15.10
2018-12-18T09:45:24.981Z,16.03
2018-12-18T09:46:31.292Z,15.27
2018-12-18T09:47:36.971Z,19.10
2018-12-18T09:48:42.612Z,20.77
2018-12-18T09:49:48.082Z,17.10
2018-12-18T09:50:53.490Z,27.73
2018-12-18T09:51:58.979Z,21.80
2018-12-18T09:53:04.884Z,15.10
2018-12-18T09:54:10.498Z,21.40
2018-12-18T09:55:16.029Z,20.10
2018-12-18T09:56:21.478Z,17.03
2018-12-18T09:57:32.242Z,21.90
2018-12-18T09:58:37.789Z,16.10
2018-12-18T09:59:43.369Z,16.33
2018-12-18T10:00:48.810Z,23.47
2018-12-18T10:01:54.184Z,15.93
2018-12-18T10:02:59.570Z,18.63
2018-12-18T10:04:05.218Z,12.77
2018-12-18T10:05:10.898Z,14.93
2018-12-18T10:06:16.431Z,28.50
2018-12-18T10:07:21.936Z,18.50
2018-12-18T10:08:27.431Z,14.00
2018-12-18T10:09:33.230Z,18.30
2018-12-18T10:10:38.721Z,14.77
2018-12-18T10:11:44.139Z,12.40
2018-12-18T10:12:56.586Z,15.30
2018-12-18T10:14:02.172Z,17.20
2018-12-18T10:15:08.461Z,19.63
2018-12-18T10:16:14.039Z,17.60
2018-12-18T10:17:19.877Z,14.90
2018-12-18T10:18:26.414Z,14.00
2018-12-18T10:19:31.924Z,13.87
2018-12-18T10:20:37.480Z,17.77
2018-12-18T10:21:43.018Z,15.67
2018-12-18T10:22:48.901Z,18.80
2018-12-18T10:23:54.398Z,19.77
2018-12-18T10:24:59.900Z,15.33
2018-12-18T10:26:05.502Z,14.60
2018-12-18T10:27:11.035Z,23.13
2018-12-18T10:28:16.802Z,12.20
2018-12-18T10:29:22.403Z,19.40
2018-12-18T10:30:28.131Z,18.60
2018-12-18T10:31:33.698Z,22.87
2018-12-18T10:32:39.139Z,11.40
2018-12-18T10:33:44.895Z,14.33
2018-12-18T10:34:50.383Z,18.90
2018-12-18T10:35:55.922Z,16.17
2018-12-18T10:37:01.414Z,13.60
2018-12-18T10:38:07.316Z,19.80
2018-12-18T10:39:12.907Z,10.90
2018-12-18T10:40:18.464Z,13.93
2018-12-18T10:41:24.060Z,13.57
2018-12-18T10:42:29.744Z,17.97
2018-12-18T10:43:36.108Z,11.90
2018-12-18T10:44:41.780Z,15.43
2018-12-18T10:45:47.216Z,24.73
2018-12-18T10:46:52.738Z,16.00
2018-12-18T10:47:58.274Z,15.43
2018-12-18T10:49:03.965Z,19.80
2018-12-18T10:50:09.624Z,13.53
2018-12-18T10:51:14.998Z,11.30
2018-12-18T10:52:20.450Z,13.20
2018-12-18T10:53:25.884Z,18.23
2018-12-18T10:54:31.437Z,12.67
2018-12-18T10:55:37.070Z,18.27
2018-12-18T10:56:42.748Z,12.90
2018-12-18T10:57:48.300Z,9.67
2018-12-18T10:58:53.799Z,10.17
2018-12-18T10:59:59.262Z,12.23
2018-12-18T11:01:10.335Z,9.40
2018-12-18T11:02:15.754Z,10.00
2018-12-18T11:03:21.127Z,15.43
2018-12-18T11:04:26.600Z,13.80
2018-12-18T11:05:32.178Z,7.90
2018-12-18T11:06:37.889Z,12.43
2018-12-18T11:07:43.481Z,12.17
2018-12-18T11:08:49.199Z,8.67
2018-12-18T11:09:54.961Z,9.90
2018-12-18T11:11:01.083Z,10.47
2018-12-18T11:12:06.552Z,8.17
2018-12-18T11:13:17.114Z,15.83
2018-12-18T11:14:22.623Z,16.10
2018-12-18T11:15:28.192Z,11.47
2018-12-18T11:16:37.327Z,11.40
2018-12-18T11:17:41.356Z,11.50
2018-12-18T11:18:46.909Z,11.60
2018-12-18T11:19:52.572Z,9.43
2018-12-18T11:20:58.142Z,9.30
2018-12-18T11:22:03.861Z,8.63
2018-12-18T11:23:09.455Z,8.77
2018-12-18T11:24:15.611Z,9.53
2018-12-18T11:25:21.207Z,18.50
2018-12-18T11:26:26.706Z,10.93
2018-12-18T11:27:32.238Z,10.50
2018-12-18T11:28:37.957Z,18.33
2018-12-18T11:29:43.508Z,12.03
2018-12-18T11:30:49.020Z,11.67
2018-12-18T11:31:54.530Z,13.00
2018-12-18T11:33:00.031Z,10.10
2018-12-18T11:34:05.664Z,14.20
2018-12-18T11:35:11.215Z,14.53
2018-12-18T11:36:16.996Z,15.90
2018-12-18T11:37:22.395Z,13.63
2018-12-18T11:38:27.804Z,9.10
2018-12-18T11:39:33.320Z,19.00
2018-12-18T11:40:38.835Z,10.90
2018-12-18T11:41:44.294Z,11.07
2018-12-18T11:42:49.949Z,12.30
2018-12-18T11:43:55.458Z,12.80
2018-12-18T11:45:00.896Z,15.33
2018-12-18T11:46:06.516Z,8.63
2018-12-18T11:47:12.054Z,12.03
2018-12-18T11:48:17.569Z,16.33
2018-12-18T11:49:23.067Z,12.60
2018-12-18T11:50:28.536Z,9.90
2018-12-18T11:51:34.052Z,12.13
2018-12-18T11:52:39.508Z,10.17
2018-12-18T11:53:45.022Z,9.27
2018-12-18T11:54:50.553Z,9.50
2018-12-18T11:55:56.306Z,11.57
2018-12-18T11:57:01.696Z,10.37
2018-12-18T11:58:07.252Z,9.70
2018-12-18T11:59:12.752Z,8.70
2018-12-18T12:00:18.322Z,10.50
2018-12-18T12:01:23.943Z,16.63
2018-12-18T12:02:29.380Z,8.87
2018-12-18T12:03:35.126Z,8.00
2018-12-18T12:04:40.577Z,13.00
2018-12-18T12:05:46.190Z,13.37
2018-12-18T12:06:51.762Z,19.63
2018-12-18T12:07:57.111Z,12.50
2018-12-18T12:09:02.638Z,7.53
2018-12-18T12:10:08.595Z,9.17
2018-12-18T12:11:14.185Z,7.33
2018-12-18T12:12:19.769Z,11.50
2018-12-18T12:13:25.318Z,6.80
2018-12-18T12:14:30.872Z,10.33
2018-12-18T12:15:37.136Z,18.00
2018-12-18T12:16:42.685Z,14.80
2018-12-18T12:17:48.420Z,12.23
2018-12-18T12:18:54.016Z,12.40
2018-12-18T12:19:59.468Z,13.20
2018-12-18T12:21:04.984Z,11.53
2018-12-18T12:22:10.720Z,8.47
2018-12-18T12:23:16.195Z,6.67
2018-12-18T12:24:21.782Z,9.50
2018-12-18T12:25:27.289Z,6.30
2018-12-18T12:26:34.363Z,12.17
2018-12-18T12:27:45.079Z,14.33
2018-12-18T12:28:50.587Z,11.13
2018-12-18T12:29:56.102Z,15.73
2018-12-18T12:31:01.531Z,9.33
2018-12-18T12:32:07.130Z,9.03
2018-12-18T12:33:12.685Z,9.93
2018-12-18T12:34:18.078Z,9.03
2018-12-18T12:35:23.532Z,7.03
2018-12-18T12:36:29.828Z,8.60
2018-12-18T12:37:35.602Z,10.00
2018-12-18T12:38:41.071Z,15.80
2018-12-18T12:39:46.479Z,7.30
2018-12-18T12:40:51.925Z,6.93
2018-12-18T12:41:57.362Z,8.90
2018-12-18T12:43:02.814Z,6.33
2018-12-18T12:44:08.290Z,10.90
2018-12-18T12:45:14.398Z,9.03
2018-12-18T12:46:19.831Z,8.07
2018-12-18T12:47:25.736Z,16.80
2018-12-18T12:48:36.503Z,17.13
2018-12-18T12:49:44.922Z,10.90
2018-12-18T12:50:50.640Z,11.33
2018-12-18T12:51:56.233Z,14.53
2018-12-18T12:53:01.895Z,10.30
2018-12-18T12:54:08.052Z,19.67
2018-12-18T12:55:13.510Z,8.40
2018-12-18T12:56:19.064Z,10.07
2018-12-18T12:57:24.561Z,7.50
2018-12-18T12:58:30.270Z,9.70
2018-12-18T12:59:35.714Z,6.50
2018-12-18T13:00:41.300Z,8.80
2018-12-18T13:01:46.967Z,18.47
2018-12-18T13:02:52.522Z,9.97
2018-12-18T13:03:58.139Z,12.23
2018-12-18T13:05:03.683Z,10.37
2018-12-18T13:06:09.141Z,15.57
2018-12-18T13:07:14.575Z,12.17
2018-12-18T13:08:20.083Z,8.80
2018-12-18T13:09:25.601Z,8.20
2018-12-18T13:10:31.083Z,7.43
2018-12-18T13:11:36.518Z,9.40
2018-12-18T13:12:42.340Z,15.60
2018-12-18T13:13:47.840Z,10.93
2018-12-18T13:14:53.364Z,7.40
2018-12-18T13:15:58.974Z,11.67
2018-12-18T13:17:04.590Z,17.43
2018-12-18T13:18:10.188Z,8.30
2018-12-18T13:19:15.607Z,8.20
2018-12-18T13:20:21.072Z,9.07
2018-12-18T13:21:26.584Z,9.47
2018-12-18T13:22:32.050Z,10.30
2018-12-18T13:23:38.224Z,12.77
2018-12-18T13:24:43.767Z,12.83
2018-12-18T13:25:49.204Z,8.57
2018-12-18T13:26:54.723Z,12.27
2018-12-18T13:28:00.259Z,12.00
2018-12-18T13:29:05.739Z,11.30
2018-12-18T13:30:11.246Z,15.00
2018-12-18T13:31:16.723Z,19.93
2018-12-18T13:32:22.263Z,21.47
2018-12-18T13:33:27.717Z,9.50
2018-12-18T13:34:33.220Z,34.53
2018-12-18T13:35:38.680Z,22.90
2018-12-18T13:36:44.363Z,40.60
2018-12-18T13:37:49.783Z,28.07
2018-12-18T13:38:55.288Z,20.60
2018-12-18T13:40:00.706Z,22.57
2018-12-18T13:41:06.376Z,15.63
2018-12-18T13:42:11.783Z,21.43
2018-12-18T13:43:17.271Z,33.87
2018-12-18T13:44:22.656Z,26.37
2018-12-18T13:45:28.195Z,27.17
2018-12-18T13:46:33.755Z,6.87
2018-12-18T13:47:39.183Z,10.27
2018-12-18T13:48:44.652Z,8.20
2018-12-18T13:49:50.092Z,10.53
2018-12-18T13:50:55.530Z,9.60
2018-12-18T13:52:01.035Z,7.33
2018-12-18T13:53:06.495Z,10.57
2018-12-18T13:54:11.963Z,10.53
2018-12-18T13:55:17.379Z,7.87
2018-12-18T13:56:22.810Z,12.60
2018-12-18T13:57:28.495Z,13.87
2018-12-18T13:58:33.899Z,9.37
2018-12-18T13:59:39.402Z,9.70
2018-12-18T14:00:44.921Z,11.20
2018-12-18T14:01:50.373Z,9.07
2018-12-18T14:02:56.079Z,9.70
2018-12-18T14:04:02.564Z,17.33
2018-12-18T14:05:08.207Z,16.67
2018-12-18T14:06:13.648Z,9.60
2018-12-18T14:07:19.119Z,6.80